Aérodrome :
LOGIN :

S'inscrire | Disclaimer

   EN    FR    IT 

 










Légende :    VFR   VFR Marginal   IFR   IFR Intensif   IFR Très Intensif
Visi : 
Plafond : 
>= 8 km
>= 3000ft
5 à 8 km
1000 à 3000 ft
1500m à 5 km
500 à 1000 ft
800 à 1500m
200 à 500 ft
< 800m
< 200 ft
Symboles :   Orages  Brouillard  Fortes neiges  Fortes précipitations  Vent > 20 kt
SIGMETs :   Divers  Orages  Givrage  Turbulence  Onde Orograph.  Cendres Volcan.






- Altitude de l'aérodrome : 83 ft
- Code IATA : LHR


EGLL - London Heathrow

DERNIER METAR :
  • 221520Z AUTO 12012KT 9999 NCD 09/08 Q0995 NOSIG

METARs EXPIRÉS :
  • 221450Z AUTO 12011KT 9999 FEW045 09/08 Q0995 NOSIG
  • 221420Z AUTO 12011KT 9999 BKN048 09/08 Q0995 NOSIG
  • 221350Z AUTO 13009KT 9999 -RA FEW028 SCT041 09/08 Q0995 NOSIG
  • 221320Z AUTO 13010KT 9999 SCT017 BKN030 09/08 Q0995 TEMPO RA
  • 221250Z AUTO 12009KT 9999 BKN016/// BKN021/// BKN030/// //////TCU 09/08 Q0995 TEMPO RA

TAF TAF EGLL
Valide du 22 à 12h jusqu'au 23 à 18h UTC


221058Z 2212/2318 15008KT 9999 SCT020
TEMPO 2212/2215 6000 SHRA BKN012
PROB30
TEMPO 2212/2215 4000 +SHRA
PROB30
TEMPO 2215/2221 10015G25KT
BECMG 2216/2219 09012KT
PROB40
TEMPO 2220/2224 7000 BKN012
TEMPO 2300/2305 6000 RA BKN009
BECMG 2305/2308 8000 BKN010
TEMPO 2305/2318 4000 RADZ BKN008
PROB40
TEMPO 2316/2318 BKN004



MET'MAP, la Météo Aéronautique d'un coup d'oeil ! - Copyright ORBIFLY Décembre 2007 - Disclaimer

ORBIFLY MET'MAP TEAM :

Programmation & Développement : Alexandra Zaïnal
Conception & Développement : Baudouin d'Aumeries
Co-Programmation & Développement : Marc-Olivier Méhu
Soutien technique & logistique : Manuel Goepfert

Contact : metmap@orbifly.com




SOURCES & CREDITS :

   NOAA